sensor_id;sensor_type;location;lat;lon;timestamp;pressure;altitude;pressure_sealevel;temperature;humidity
72118;BME280;59992;47.490;8.736;2022-07-23T00:00:56;96826.45;;;20.42;80.09
72118;BME280;59992;47.490;8.736;2022-07-23T00:03:46;96858.58;;;20.37;79.58
72118;BME280;59992;47.490;8.736;2022-07-23T00:06:37;96873.80;;;20.34;77.94
72118;BME280;59992;47.490;8.736;2022-07-23T00:09:28;96859.38;;;20.39;77.68
72118;BME280;59992;47.490;8.736;2022-07-23T00:12:21;96805.98;;;20.43;78.20
72118;BME280;59992;47.490;8.736;2022-07-23T00:15:12;96771.70;;;20.38;79.33
72118;BME280;59992;47.490;8.736;2022-07-23T00:18:03;96726.80;;;20.24;80.04
72118;BME280;59992;47.490;8.736;2022-07-23T00:20:54;96690.66;;;20.08;82.43
72118;BME280;59992;47.490;8.736;2022-07-23T00:23:45;96688.97;;;20.04;82.76
72118;BME280;59992;47.490;8.736;2022-07-23T00:26:36;96679.95;;;19.95;82.53
72118;BME280;59992;47.490;8.736;2022-07-23T00:29:27;96689.13;;;19.87;82.25
72118;BME280;59992;47.490;8.736;2022-07-23T00:32:20;96690.66;;;19.76;81.17
72118;BME280;59992;47.490;8.736;2022-07-23T00:35:11;96677.65;;;19.66;80.22
72118;BME280;59992;47.490;8.736;2022-07-23T00:38:09;96674.20;;;19.62;78.62
72118;BME280;59992;47.490;8.736;2022-07-23T00:41:00;96692.52;;;19.56;83.71
72118;BME280;59992;47.490;8.736;2022-07-23T00:43:51;96689.65;;;19.46;83.96
72118;BME280;59992;47.490;8.736;2022-07-23T00:46:46;96667.13;;;19.32;85.53
72118;BME280;59992;47.490;8.736;2022-07-23T00:49:45;96666.23;;;19.29;84.14
72118;BME280;59992;47.490;8.736;2022-07-23T00:52:38;96660.77;;;19.22;84.94
72118;BME280;59992;47.490;8.736;2022-07-23T00:55:30;96668.77;;;19.16;86.50
72118;BME280;59992;47.490;8.736;2022-07-23T00:58:21;96667.24;;;19.12;84.71
72118;BME280;59992;47.490;8.736;2022-07-23T01:01:12;96646.71;;;19.06;82.49
72118;BME280;59992;47.490;8.736;2022-07-23T01:04:03;96651.43;;;19.08;85.68
72118;BME280;59992;47.490;8.736;2022-07-23T01:06:57;96647.79;;;19.05;87.66
72118;BME280;59992;47.490;8.736;2022-07-23T01:09:52;96638.64;;;19.03;86.78
72118;BME280;59992;47.490;8.736;2022-07-23T01:12:42;96623.46;;;19.02;84.13
72118;BME280;59992;47.490;8.736;2022-07-23T01:15:34;96622.30;;;19.02;84.04
72118;BME280;59992;47.490;8.736;2022-07-23T01:18:25;96621.27;;;18.99;83.02
72118;BME280;59992;47.490;8.736;2022-07-23T01:21:19;96623.34;;;19.00;82.59
72118;BME280;59992;47.490;8.736;2022-07-23T01:24:11;96613.07;;;19.03;81.32
72118;BME280;59992;47.490;8.736;2022-07-23T01:27:02;96604.66;;;19.05;83.82
72118;BME280;59992;47.490;8.736;2022-07-23T01:29:55;96609.14;;;18.95;85.30
72118;BME280;59992;47.490;8.736;2022-07-23T01:32:47;96611.13;;;18.84;86.27
72118;BME280;59992;47.490;8.736;2022-07-23T01:35:38;96613.79;;;18.72;86.38
72118;BME280;59992;47.490;8.736;2022-07-23T01:38:28;96607.24;;;18.62;85.82
72118;BME280;59992;47.490;8.736;2022-07-23T01:41:19;96605.10;;;18.52;85.20
72118;BME280;59992;47.490;8.736;2022-07-23T01:44:10;96599.98;;;18.42;87.04
72118;BME280;59992;47.490;8.736;2022-07-23T01:47:00;96600.58;;;18.37;86.27
72118;BME280;59992;47.490;8.736;2022-07-23T01:49:51;96606.91;;;18.35;86.49
72118;BME280;59992;47.490;8.736;2022-07-23T01:52:41;96612.34;;;18.31;86.52
72118;BME280;59992;47.490;8.736;2022-07-23T01:55:32;96616.95;;;18.31;84.70
72118;BME280;59992;47.490;8.736;2022-07-23T01:58:22;96625.60;;;18.27;86.26
72118;BME280;59992;47.490;8.736;2022-07-23T02:01:13;96628.71;;;18.24;87.80
72118;BME280;59992;47.490;8.736;2022-07-23T02:04:04;96637.25;;;18.22;87.43
72118;BME280;59992;47.490;8.736;2022-07-23T02:06:54;96645.86;;;18.21;87.86
72118;BME280;59992;47.490;8.736;2022-07-23T02:09:46;96646.94;;;18.21;87.35
72118;BME280;59992;47.490;8.736;2022-07-23T02:12:37;96630.05;;;18.12;87.85
72118;BME280;59992;47.490;8.736;2022-07-23T02:15:28;96623.97;;;18.09;88.49
72118;BME280;59992;47.490;8.736;2022-07-23T02:18:19;96624.33;;;18.06;87.98
72118;BME280;59992;47.490;8.736;2022-07-23T02:21:10;96626.32;;;18.05;88.82
72118;BME280;59992;47.490;8.736;2022-07-23T02:24:04;96635.14;;;18.05;88.62
72118;BME280;59992;47.490;8.736;2022-07-23T02:26:55;96637.90;;;18.05;87.92
72118;BME280;59992;47.490;8.736;2022-07-23T02:29:46;96627.41;;;18.04;88.09
72118;BME280;59992;47.490;8.736;2022-07-23T02:32:48;96614.52;;;18.00;88.97
72118;BME280;59992;47.490;8.736;2022-07-23T02:35:39;96613.31;;;17.98;88.56
72118;BME280;59992;47.490;8.736;2022-07-23T02:38:30;96604.20;;;17.94;88.21
72118;BME280;59992;47.490;8.736;2022-07-23T02:41:20;96621.84;;;17.97;88.73
72118;BME280;59992;47.490;8.736;2022-07-23T02:44:11;96621.34;;;18.00;89.25
72118;BME280;59992;47.490;8.736;2022-07-23T02:47:02;96601.59;;;17.98;88.72
72118;BME280;59992;47.490;8.736;2022-07-23T02:49:53;96600.40;;;18.01;88.54
72118;BME280;59992;47.490;8.736;2022-07-23T02:52:44;96621.30;;;18.03;89.34
72118;BME280;59992;47.490;8.736;2022-07-23T02:55:35;96623.40;;;18.06;89.73
72118;BME280;59992;47.490;8.736;2022-07-23T02:58:26;96629.16;;;18.10;90.10
72118;BME280;59992;47.490;8.736;2022-07-23T03:01:17;96643.95;;;18.11;89.81
72118;BME280;59992;47.490;8.736;2022-07-23T03:04:09;96669.92;;;18.11;89.84
72118;BME280;59992;47.490;8.736;2022-07-23T03:07:01;96691.16;;;18.12;90.00
72118;BME280;59992;47.490;8.736;2022-07-23T03:09:53;96690.70;;;18.12;90.08
72118;BME280;59992;47.490;8.736;2022-07-23T03:12:44;96666.53;;;18.13;88.56
72118;BME280;59992;47.490;8.736;2022-07-23T03:15:35;96665.07;;;18.07;89.60
72118;BME280;59992;47.490;8.736;2022-07-23T03:18:26;96680.97;;;18.01;90.42
72118;BME280;59992;47.490;8.736;2022-07-23T03:21:20;96679.91;;;17.99;89.97
72118;BME280;59992;47.490;8.736;2022-07-23T03:24:11;96680.39;;;17.97;90.44
72118;BME280;59992;47.490;8.736;2022-07-23T03:27:01;96664.81;;;17.99;91.63
72118;BME280;59992;47.490;8.736;2022-07-23T03:29:53;96664.60;;;18.03;91.62
72118;BME280;59992;47.490;8.736;2022-07-23T03:32:43;96664.73;;;18.05;90.13
72118;BME280;59992;47.490;8.736;2022-07-23T03:35:34;96654.55;;;18.09;89.67
72118;BME280;59992;47.490;8.736;2022-07-23T03:38:25;96653.27;;;18.13;89.77
72118;BME280;59992;47.490;8.736;2022-07-23T03:41:15;96663.73;;;18.10;90.25
72118;BME280;59992;47.490;8.736;2022-07-23T03:44:05;96650.08;;;18.11;89.99
72118;BME280;59992;47.490;8.736;2022-07-23T03:46:56;96636.84;;;18.09;89.61
72118;BME280;59992;47.490;8.736;2022-07-23T03:49:46;96631.84;;;18.06;89.61
72118;BME280;59992;47.490;8.736;2022-07-23T03:52:37;96634.38;;;18.04;89.84
72118;BME280;59992;47.490;8.736;2022-07-23T03:55:28;96637.67;;;18.04;89.14
72118;BME280;59992;47.490;8.736;2022-07-23T03:58:19;96623.38;;;18.07;91.32
72118;BME280;59992;47.490;8.736;2022-07-23T04:01:09;96627.55;;;18.10;90.36
72118;BME280;59992;47.490;8.736;2022-07-23T04:04:01;96626.77;;;18.06;90.60
72118;BME280;59992;47.490;8.736;2022-07-23T04:06:52;96646.71;;;18.05;90.23
72118;BME280;59992;47.490;8.736;2022-07-23T04:09:43;96669.77;;;18.06;90.71
72118;BME280;59992;47.490;8.736;2022-07-23T04:12:34;96714.70;;;18.06;91.38
72118;BME280;59992;47.490;8.736;2022-07-23T04:15:25;96761.95;;;18.09;91.61
72118;BME280;59992;47.490;8.736;2022-07-23T04:18:15;96746.32;;;18.14;90.77
72118;BME280;59992;47.490;8.736;2022-07-23T04:21:06;96719.38;;;18.22;91.06
72118;BME280;59992;47.490;8.736;2022-07-23T04:24:00;96709.98;;;18.24;90.76
72118;BME280;59992;47.490;8.736;2022-07-23T04:26:53;96687.80;;;18.26;89.61
72118;BME280;59992;47.490;8.736;2022-07-23T04:29:43;96676.39;;;18.24;90.71
72118;BME280;59992;47.490;8.736;2022-07-23T04:32:34;96686.61;;;18.23;92.36
72118;BME280;59992;47.490;8.736;2022-07-23T04:35:24;96694.79;;;18.26;89.99
72118;BME280;59992;47.490;8.736;2022-07-23T04:38:15;96714.77;;;18.27;89.89
72118;BME280;59992;47.490;8.736;2022-07-23T04:41:06;96733.65;;;18.30;89.48
72118;BME280;59992;47.490;8.736;2022-07-23T04:43:57;96751.66;;;18.32;89.95
72118;BME280;59992;47.490;8.736;2022-07-23T04:46:48;96758.36;;;18.36;89.55
72118;BME280;59992;47.490;8.736;2022-07-23T04:49:39;96764.91;;;18.38;90.13
72118;BME280;59992;47.490;8.736;2022-07-23T04:52:31;96777.84;;;18.42;89.79
72118;BME280;59992;47.490;8.736;2022-07-23T04:55:22;96791.80;;;18.48;89.51
72118;BME280;59992;47.490;8.736;2022-07-23T04:58:13;96801.57;;;18.51;89.02
72118;BME280;59992;47.490;8.736;2022-07-23T05:01:04;96802.80;;;18.56;88.78
72118;BME280;59992;47.490;8.736;2022-07-23T05:03:54;96804.83;;;18.58;88.41
72118;BME280;59992;47.490;8.736;2022-07-23T05:06:45;96805.95;;;18.62;88.37
72118;BME280;59992;47.490;8.736;2022-07-23T05:09:36;96789.61;;;18.61;88.57
72118;BME280;59992;47.490;8.736;2022-07-23T05:12:27;96774.22;;;18.54;89.06
72118;BME280;59992;47.490;8.736;2022-07-23T05:15:17;96769.68;;;18.49;89.01
72118;BME280;59992;47.490;8.736;2022-07-23T05:18:11;96774.89;;;18.51;88.21
72118;BME280;59992;47.490;8.736;2022-07-23T05:21:06;96777.99;;;18.48;89.03
72118;BME280;59992;47.490;8.736;2022-07-23T05:23:57;96780.23;;;18.47;88.77
72118;BME280;59992;47.490;8.736;2022-07-23T05:26:47;96797.11;;;18.47;89.38
72118;BME280;59992;47.490;8.736;2022-07-23T05:29:37;96783.92;;;18.46;88.87
72118;BME280;59992;47.490;8.736;2022-07-23T05:32:28;96781.86;;;18.46;89.04
72118;BME280;59992;47.490;8.736;2022-07-23T05:35:18;96784.97;;;18.48;89.70
72118;BME280;59992;47.490;8.736;2022-07-23T05:38:09;96779.89;;;18.49;88.25
72118;BME280;59992;47.490;8.736;2022-07-23T05:41:00;96789.45;;;18.51;89.50
72118;BME280;59992;47.490;8.736;2022-07-23T05:43:51;96774.45;;;18.48;90.79
72118;BME280;59992;47.490;8.736;2022-07-23T05:46:42;96770.84;;;18.50;89.09
72118;BME280;59992;47.490;8.736;2022-07-23T05:49:32;96775.12;;;18.51;90.77
72118;BME280;59992;47.490;8.736;2022-07-23T05:52:22;96777.39;;;18.53;89.70
72118;BME280;59992;47.490;8.736;2022-07-23T05:55:14;96779.52;;;18.53;89.12
72118;BME280;59992;47.490;8.736;2022-07-23T05:58:04;96770.65;;;18.56;89.94
72118;BME280;59992;47.490;8.736;2022-07-23T06:00:54;96743.00;;;18.53;88.85
72118;BME280;59992;47.490;8.736;2022-07-23T06:03:45;96725.39;;;18.52;88.50
72118;BME280;59992;47.490;8.736;2022-07-23T06:06:38;96729.18;;;18.44;89.29
72118;BME280;59992;47.490;8.736;2022-07-23T06:09:29;96745.74;;;18.50;90.00
72118;BME280;59992;47.490;8.736;2022-07-23T06:12:20;96759.71;;;18.49;89.69
72118;BME280;59992;47.490;8.736;2022-07-23T06:15:12;96756.61;;;18.47;90.04
72118;BME280;59992;47.490;8.736;2022-07-23T06:18:03;96735.14;;;18.46;89.69
72118;BME280;59992;47.490;8.736;2022-07-23T06:20:54;96758.48;;;18.45;90.78
72118;BME280;59992;47.490;8.736;2022-07-23T06:23:44;96771.28;;;18.45;90.77
72118;BME280;59992;47.490;8.736;2022-07-23T06:26:35;96781.68;;;18.53;91.06
72118;BME280;59992;47.490;8.736;2022-07-23T06:29:26;96789.33;;;18.59;91.09
72118;BME280;59992;47.490;8.736;2022-07-23T06:32:17;96790.09;;;18.65;89.59
72118;BME280;59992;47.490;8.736;2022-07-23T06:35:08;96796.42;;;18.72;88.36
72118;BME280;59992;47.490;8.736;2022-07-23T06:37:59;96810.31;;;18.77;89.05
72118;BME280;59992;47.490;8.736;2022-07-23T06:40:49;96820.84;;;18.76;90.38
72118;BME280;59992;47.490;8.736;2022-07-23T06:43:40;96833.90;;;18.75;89.96
72118;BME280;59992;47.490;8.736;2022-07-23T06:46:31;96832.23;;;18.73;89.63
72118;BME280;59992;47.490;8.736;2022-07-23T06:49:22;96830.39;;;18.74;89.73
72118;BME280;59992;47.490;8.736;2022-07-23T06:52:13;96822.76;;;18.72;88.88
72118;BME280;59992;47.490;8.736;2022-07-23T06:55:04;96814.38;;;18.72;88.75
72118;BME280;59992;47.490;8.736;2022-07-23T06:57:55;96818.00;;;18.67;88.82
72118;BME280;59992;47.490;8.736;2022-07-23T07:00:46;96817.42;;;18.63;88.23
72118;BME280;59992;47.490;8.736;2022-07-23T07:03:36;96826.50;;;18.61;88.68
72118;BME280;59992;47.490;8.736;2022-07-23T07:06:27;96841.84;;;18.63;88.23
72118;BME280;59992;47.490;8.736;2022-07-23T07:09:18;96855.92;;;18.65;88.55
72118;BME280;59992;47.490;8.736;2022-07-23T07:12:09;96840.11;;;18.65;88.17
72118;BME280;59992;47.490;8.736;2022-07-23T07:15:01;96833.44;;;18.65;89.02
72118;BME280;59992;47.490;8.736;2022-07-23T07:17:52;96836.27;;;18.71;88.60
72118;BME280;59992;47.490;8.736;2022-07-23T07:20:42;96839.00;;;18.78;88.89
72118;BME280;59992;47.490;8.736;2022-07-23T07:23:33;96836.70;;;18.92;87.70
72118;BME280;59992;47.490;8.736;2022-07-23T07:26:23;96840.23;;;19.17;88.53
72118;BME280;59992;47.490;8.736;2022-07-23T07:29:13;96845.63;;;19.41;88.38
72118;BME280;59992;47.490;8.736;2022-07-23T07:32:04;96846.33;;;19.70;86.79
72118;BME280;59992;47.490;8.736;2022-07-23T07:34:55;96845.16;;;20.00;85.48
72118;BME280;59992;47.490;8.736;2022-07-23T07:37:45;96858.63;;;20.27;85.82
72118;BME280;59992;47.490;8.736;2022-07-23T07:40:35;96863.36;;;20.47;85.69
72118;BME280;59992;47.490;8.736;2022-07-23T07:43:26;96859.58;;;20.62;83.85
72118;BME280;59992;47.490;8.736;2022-07-23T07:46:16;96858.34;;;20.73;83.06
72118;BME280;59992;47.490;8.736;2022-07-23T07:49:07;96860.09;;;20.78;82.48
72118;BME280;59992;47.490;8.736;2022-07-23T07:51:57;96867.71;;;20.78;82.78
72118;BME280;59992;47.490;8.736;2022-07-23T07:54:48;96876.93;;;20.72;82.14
72118;BME280;59992;47.490;8.736;2022-07-23T07:57:39;96874.82;;;20.62;83.79
72118;BME280;59992;47.490;8.736;2022-07-23T08:00:30;96868.24;;;20.57;82.98
72118;BME280;59992;47.490;8.736;2022-07-23T08:03:22;96868.27;;;20.45;84.15
72118;BME280;59992;47.490;8.736;2022-07-23T08:06:13;96863.20;;;20.37;83.44
72118;BME280;59992;47.490;8.736;2022-07-23T08:09:03;96868.60;;;20.33;83.85
72118;BME280;59992;47.490;8.736;2022-07-23T08:11:54;96866.08;;;20.31;83.22
72118;BME280;59992;47.490;8.736;2022-07-23T08:14:44;96868.60;;;20.32;83.18
72118;BME280;59992;47.490;8.736;2022-07-23T08:17:35;96876.10;;;20.34;82.46
72118;BME280;59992;47.490;8.736;2022-07-23T08:20:26;96856.53;;;20.32;83.63
72118;BME280;59992;47.490;8.736;2022-07-23T08:23:16;96856.69;;;20.28;83.13
72118;BME280;59992;47.490;8.736;2022-07-23T08:26:08;96849.09;;;20.23;83.25
72118;BME280;59992;47.490;8.736;2022-07-23T08:28:59;96852.16;;;20.27;83.58
72118;BME280;59992;47.490;8.736;2022-07-23T08:31:50;96849.58;;;20.29;83.66
72118;BME280;59992;47.490;8.736;2022-07-23T08:34:40;96849.70;;;20.31;85.08
72118;BME280;59992;47.490;8.736;2022-07-23T08:37:31;96850.58;;;20.37;85.86
72118;BME280;59992;47.490;8.736;2022-07-23T08:40:21;96847.77;;;20.35;84.14
72118;BME280;59992;47.490;8.736;2022-07-23T08:43:14;96850.00;;;20.50;84.77
72118;BME280;59992;47.490;8.736;2022-07-23T08:46:05;96861.17;;;20.67;83.71
72118;BME280;59992;47.490;8.736;2022-07-23T08:48:55;96870.62;;;20.82;84.39
72118;BME280;59992;47.490;8.736;2022-07-23T08:51:47;96869.25;;;20.91;83.37
72118;BME280;59992;47.490;8.736;2022-07-23T08:54:38;96874.69;;;20.96;83.59
72118;BME280;59992;47.490;8.736;2022-07-23T08:57:29;96883.19;;;21.02;84.15
72118;BME280;59992;47.490;8.736;2022-07-23T09:00:20;96888.16;;;21.07;83.89
72118;BME280;59992;47.490;8.736;2022-07-23T09:03:16;96885.67;;;21.04;82.62
72118;BME280;59992;47.490;8.736;2022-07-23T09:06:07;96877.74;;;21.02;82.74
72118;BME280;59992;47.490;8.736;2022-07-23T09:08:58;96880.52;;;21.01;82.28
72118;BME280;59992;47.490;8.736;2022-07-23T09:11:48;96870.54;;;20.95;81.07
72118;BME280;59992;47.490;8.736;2022-07-23T09:14:51;96865.55;;;20.86;81.94
72118;BME280;59992;47.490;8.736;2022-07-23T09:17:43;96861.98;;;20.86;81.69
72118;BME280;59992;47.490;8.736;2022-07-23T09:20:34;96857.26;;;20.87;81.40
72118;BME280;59992;47.490;8.736;2022-07-23T09:23:38;96862.83;;;20.86;81.84
72118;BME280;59992;47.490;8.736;2022-07-23T09:26:37;96868.79;;;20.85;82.40
72118;BME280;59992;47.490;8.736;2022-07-23T09:29:27;96871.13;;;20.86;82.61
72118;BME280;59992;47.490;8.736;2022-07-23T09:32:18;96872.95;;;20.91;81.36
72118;BME280;59992;47.490;8.736;2022-07-23T09:35:09;96875.69;;;20.96;82.79
72118;BME280;59992;47.490;8.736;2022-07-23T09:38:04;96879.21;;;21.00;81.12
72118;BME280;59992;47.490;8.736;2022-07-23T09:41:09;96877.80;;;20.94;82.56
72118;BME280;59992;47.490;8.736;2022-07-23T09:44:08;96874.77;;;20.89;81.10
72118;BME280;59992;47.490;8.736;2022-07-23T09:47:01;96871.88;;;20.87;82.79
72118;BME280;59992;47.490;8.736;2022-07-23T09:50:01;96875.66;;;20.87;81.97
72118;BME280;59992;47.490;8.736;2022-07-23T09:52:54;96880.48;;;20.81;81.78
72118;BME280;59992;47.490;8.736;2022-07-23T09:55:44;96887.04;;;20.78;83.03
72118;BME280;59992;47.490;8.736;2022-07-23T09:58:37;96885.86;;;20.75;82.92
72118;BME280;59992;47.490;8.736;2022-07-23T10:01:34;96878.98;;;20.76;82.90
72118;BME280;59992;47.490;8.736;2022-07-23T10:04:26;96884.88;;;20.66;82.50
72118;BME280;59992;47.490;8.736;2022-07-23T10:07:18;96890.44;;;20.70;83.48
72118;BME280;59992;47.490;8.736;2022-07-23T10:10:12;96887.79;;;20.71;82.59
72118;BME280;59992;47.490;8.736;2022-07-23T10:13:04;96883.17;;;20.60;82.27
72118;BME280;59992;47.490;8.736;2022-07-23T10:16:13;96882.36;;;20.52;83.02
72118;BME280;59992;47.490;8.736;2022-07-23T10:19:04;96884.56;;;20.42;83.17
72118;BME280;59992;47.490;8.736;2022-07-23T10:21:57;96881.13;;;20.51;83.18
72118;BME280;59992;47.490;8.736;2022-07-23T10:24:55;96884.77;;;20.58;83.74
72118;BME280;59992;47.490;8.736;2022-07-23T10:27:56;96893.83;;;20.62;82.99
72118;BME280;59992;47.490;8.736;2022-07-23T10:30:59;96891.91;;;20.73;83.24
72118;BME280;59992;47.490;8.736;2022-07-23T10:34:06;96901.88;;;20.82;84.15
72118;BME280;59992;47.490;8.736;2022-07-23T10:37:01;96899.69;;;20.91;83.70
72118;BME280;59992;47.490;8.736;2022-07-23T10:43:01;96900.35;;;21.17;82.65
72118;BME280;59992;47.490;8.736;2022-07-23T10:45:52;96904.27;;;21.13;82.55
72118;BME280;59992;47.490;8.736;2022-07-23T10:48:43;96917.37;;;21.14;81.81
72118;BME280;59992;47.490;8.736;2022-07-23T10:51:33;96903.52;;;21.13;81.81
72118;BME280;59992;47.490;8.736;2022-07-23T10:54:24;96891.84;;;21.18;81.61
72118;BME280;59992;47.490;8.736;2022-07-23T10:57:15;96912.88;;;21.11;81.95
72118;BME280;59992;47.490;8.736;2022-07-23T11:00:19;96920.88;;;20.97;81.86
72118;BME280;59992;47.490;8.736;2022-07-23T11:03:31;96908.31;;;20.94;82.68
72118;BME280;59992;47.490;8.736;2022-07-23T11:06:25;96907.98;;;21.02;83.73
72118;BME280;59992;47.490;8.736;2022-07-23T11:09:41;96903.83;;;21.09;83.84
72118;BME280;59992;47.490;8.736;2022-07-23T11:12:36;96909.59;;;21.20;82.90
72118;BME280;59992;47.490;8.736;2022-07-23T11:15:27;96908.20;;;21.23;82.90
72118;BME280;59992;47.490;8.736;2022-07-23T11:18:19;96903.79;;;21.04;81.75
72118;BME280;59992;47.490;8.736;2022-07-23T11:21:58;96893.11;;;21.06;83.40
72118;BME280;59992;47.490;8.736;2022-07-23T11:24:52;96887.27;;;21.09;82.74
72118;BME280;59992;47.490;8.736;2022-07-23T11:27:45;96897.34;;;21.03;84.02
72118;BME280;59992;47.490;8.736;2022-07-23T11:30:44;96889.92;;;21.11;83.40
72118;BME280;59992;47.490;8.736;2022-07-23T11:33:34;96891.32;;;21.17;83.09
72118;BME280;59992;47.490;8.736;2022-07-23T11:36:25;96885.77;;;21.33;84.65
72118;BME280;59992;47.490;8.736;2022-07-23T11:39:16;96884.40;;;21.54;84.27
72118;BME280;59992;47.490;8.736;2022-07-23T11:42:08;96886.67;;;21.84;84.10
72118;BME280;59992;47.490;8.736;2022-07-23T11:44:59;96878.33;;;22.19;82.06
72118;BME280;59992;47.490;8.736;2022-07-23T11:47:50;96878.35;;;22.43;82.38
72118;BME280;59992;47.490;8.736;2022-07-23T11:50:40;96879.20;;;22.67;81.71
72118;BME280;59992;47.490;8.736;2022-07-23T11:53:33;96877.42;;;22.78;78.57
72118;BME280;59992;47.490;8.736;2022-07-23T11:56:24;96876.80;;;22.88;78.39
72118;BME280;59992;47.490;8.736;2022-07-23T11:59:14;96870.49;;;22.94;78.21
72118;BME280;59992;47.490;8.736;2022-07-23T12:02:06;96877.56;;;23.08;79.79
72118;BME280;59992;47.490;8.736;2022-07-23T12:04:57;96878.94;;;23.23;76.42
72118;BME280;59992;47.490;8.736;2022-07-23T12:07:48;96873.73;;;23.35;78.03
72118;BME280;59992;47.490;8.736;2022-07-23T12:10:42;96876.27;;;23.42;76.23
72118;BME280;59992;47.490;8.736;2022-07-23T12:13:33;96872.47;;;23.47;77.36
72118;BME280;59992;47.490;8.736;2022-07-23T12:16:24;96869.11;;;23.41;76.89
72118;BME280;59992;47.490;8.736;2022-07-23T12:19:14;96867.02;;;23.50;77.95
72118;BME280;59992;47.490;8.736;2022-07-23T12:22:05;96864.98;;;23.54;74.78
72118;BME280;59992;47.490;8.736;2022-07-23T12:25:01;96870.15;;;23.72;76.43
72118;BME280;59992;47.490;8.736;2022-07-23T12:28:05;96876.17;;;23.93;75.22
72118;BME280;59992;47.490;8.736;2022-07-23T12:30:58;96869.04;;;24.02;73.23
72118;BME280;59992;47.490;8.736;2022-07-23T12:33:49;96864.00;;;24.07;72.88
72118;BME280;59992;47.490;8.736;2022-07-23T12:36:40;96862.40;;;24.11;73.22
72118;BME280;59992;47.490;8.736;2022-07-23T12:39:34;96862.23;;;24.25;72.89
72118;BME280;59992;47.490;8.736;2022-07-23T12:42:24;96863.80;;;24.22;72.66
72118;BME280;59992;47.490;8.736;2022-07-23T12:45:15;96860.56;;;24.23;71.90
72118;BME280;59992;47.490;8.736;2022-07-23T12:48:07;96860.11;;;24.27;71.45
72118;BME280;59992;47.490;8.736;2022-07-23T12:50:59;96860.59;;;24.25;72.85
72118;BME280;59992;47.490;8.736;2022-07-23T12:53:51;96857.65;;;24.23;70.07
72118;BME280;59992;47.490;8.736;2022-07-23T12:56:45;96855.11;;;24.22;71.19
72118;BME280;59992;47.490;8.736;2022-07-23T12:59:36;96847.55;;;24.30;69.74
72118;BME280;59992;47.490;8.736;2022-07-23T13:02:27;96852.77;;;24.33;70.15
72118;BME280;59992;47.490;8.736;2022-07-23T13:05:18;96851.66;;;24.40;69.46
72118;BME280;59992;47.490;8.736;2022-07-23T13:08:08;96845.25;;;24.46;70.71
72118;BME280;59992;47.490;8.736;2022-07-23T13:11:00;96845.08;;;24.54;68.62
72118;BME280;59992;47.490;8.736;2022-07-23T13:13:51;96841.27;;;24.60;68.83
72118;BME280;59992;47.490;8.736;2022-07-23T13:16:43;96836.40;;;24.62;67.31
72118;BME280;59992;47.490;8.736;2022-07-23T13:19:34;96832.52;;;24.63;67.03
72118;BME280;59992;47.490;8.736;2022-07-23T13:22:24;96830.61;;;24.70;67.56
72118;BME280;59992;47.490;8.736;2022-07-23T13:25:15;96829.30;;;24.72;68.02
72118;BME280;59992;47.490;8.736;2022-07-23T13:28:06;96825.67;;;24.74;68.13
72118;BME280;59992;47.490;8.736;2022-07-23T13:30:57;96831.81;;;24.76;68.42
72118;BME280;59992;47.490;8.736;2022-07-23T13:33:48;96827.30;;;24.82;67.60
72118;BME280;59992;47.490;8.736;2022-07-23T13:36:39;96825.59;;;24.91;67.30
72118;BME280;59992;47.490;8.736;2022-07-23T13:39:29;96821.37;;;24.93;67.72
72118;BME280;59992;47.490;8.736;2022-07-23T13:42:20;96814.08;;;24.93;67.46
72118;BME280;59992;47.490;8.736;2022-07-23T13:45:11;96815.59;;;24.94;67.33
72118;BME280;59992;47.490;8.736;2022-07-23T13:48:02;96816.08;;;25.03;66.88
72118;BME280;59992;47.490;8.736;2022-07-23T13:50:53;96815.98;;;25.11;67.45
72118;BME280;59992;47.490;8.736;2022-07-23T13:53:43;96813.46;;;25.16;65.94
72118;BME280;59992;47.490;8.736;2022-07-23T13:56:34;96810.93;;;25.17;65.77
72118;BME280;59992;47.490;8.736;2022-07-23T13:59:25;96807.45;;;25.19;65.56
72118;BME280;59992;47.490;8.736;2022-07-23T14:02:16;96808.95;;;25.22;67.59
72118;BME280;59992;47.490;8.736;2022-07-23T14:05:09;96806.30;;;25.26;66.60
72118;BME280;59992;47.490;8.736;2022-07-23T14:08:00;96800.88;;;25.39;67.93
72118;BME280;59992;47.490;8.736;2022-07-23T14:10:51;96802.23;;;25.57;65.88
72118;BME280;59992;47.490;8.736;2022-07-23T14:13:42;96799.54;;;25.75;64.51
72118;BME280;59992;47.490;8.736;2022-07-23T14:16:33;96803.20;;;25.90;63.94
72118;BME280;59992;47.490;8.736;2022-07-23T14:19:24;96805.88;;;26.06;62.98
72118;BME280;59992;47.490;8.736;2022-07-23T14:22:14;96809.55;;;26.21;62.60
72118;BME280;59992;47.490;8.736;2022-07-23T14:25:06;96809.59;;;26.37;62.33
72118;BME280;59992;47.490;8.736;2022-07-23T14:27:57;96811.17;;;26.43;60.16
72118;BME280;59992;47.490;8.736;2022-07-23T14:30:48;96810.93;;;26.53;62.27
72118;BME280;59992;47.490;8.736;2022-07-23T14:33:38;96814.16;;;26.50;60.99
72118;BME280;59992;47.490;8.736;2022-07-23T14:36:29;96816.52;;;26.52;60.79
72118;BME280;59992;47.490;8.736;2022-07-23T14:39:20;96818.98;;;26.51;59.81
72118;BME280;59992;47.490;8.736;2022-07-23T14:42:10;96819.13;;;26.51;62.16
72118;BME280;59992;47.490;8.736;2022-07-23T14:45:01;96814.80;;;26.45;61.53
72118;BME280;59992;47.490;8.736;2022-07-23T14:47:53;96809.84;;;26.37;61.86
72118;BME280;59992;47.490;8.736;2022-07-23T14:50:44;96809.46;;;26.43;61.18
72118;BME280;59992;47.490;8.736;2022-07-23T14:53:34;96811.07;;;26.45;59.55
72118;BME280;59992;47.490;8.736;2022-07-23T14:56:25;96809.52;;;26.47;60.27
72118;BME280;59992;47.490;8.736;2022-07-23T14:59:15;96802.56;;;26.53;59.54
72118;BME280;59992;47.490;8.736;2022-07-23T15:02:05;96802.22;;;26.57;59.92
72118;BME280;59992;47.490;8.736;2022-07-23T15:04:56;96800.11;;;26.56;58.89
72118;BME280;59992;47.490;8.736;2022-07-23T15:07:50;96800.77;;;26.53;57.20
72118;BME280;59992;47.490;8.736;2022-07-23T15:10:41;96800.88;;;26.57;58.01
72118;BME280;59992;47.490;8.736;2022-07-23T15:13:32;96801.05;;;26.57;59.92